Terminal Aerodrome Forecast
Issued by NWS

Home | Current Version | Previous Version | Text Only | Print | Product List | Glossary On
Versions: 1 2 3 4 5 6 7 8 9 10 11 12
000
FTUS42 KTBW 141731
TAFLAL
TAF
KLAL 141731Z 1418/1518 23009KT P6SM FEW030 SCT080
     FM142100 23009KT P6SM BKN035 BKN080
     FM150200 19005KT P6SM SCT035 BKN110
     FM151300 VRB04KT P6SM SCT025 BKN030
     FM151600 20006KT P6SM SCT025 BKN035=

USA.gov is the U.S. government's official web portal to all federal, state and local government web resources and services.